createdAt,value
2023-05-23T00:11:27.142Z,11.87
2023-05-23T00:26:30.399Z,11.77
2023-05-23T00:41:33.155Z,12.87
2023-05-23T00:56:36.790Z,15.43
2023-05-23T01:11:52.162Z,16.10
2023-05-23T01:27:08.529Z,16.03
2023-05-23T01:42:11.131Z,14.20
2023-05-23T01:57:14.024Z,11.83
2023-05-23T02:12:16.501Z,11.53
2023-05-23T02:27:19.327Z,17.37
2023-05-23T02:42:21.847Z,17.07
2023-05-23T02:57:24.729Z,14.97
2023-05-23T03:12:29.089Z,12.43
2023-05-23T03:27:32.576Z,10.60
2023-05-23T03:42:34.978Z,14.67
2023-05-23T03:57:37.667Z,14.47
2023-05-23T04:12:41.642Z,12.27
2023-05-23T04:27:48.969Z,10.40
2023-05-23T04:42:51.772Z,8.97
2023-05-23T04:58:05.558Z,9.50
2023-05-23T05:13:08.077Z,9.27
2023-05-23T05:28:19.370Z,10.80
2023-05-23T05:43:27.892Z,11.47
2023-05-23T05:58:30.686Z,10.93
2023-05-23T06:13:36.853Z,8.33
2023-05-23T06:28:40.333Z,6.63
2023-05-23T06:43:42.952Z,7.23
2023-05-23T06:58:58.740Z,7.33
2023-05-23T07:14:02.477Z,7.63
2023-05-23T07:29:19.894Z,6.90
2023-05-23T07:44:25.279Z,7.90
2023-05-23T07:59:30.244Z,7.70
2023-05-23T08:14:49.831Z,8.70
2023-05-23T08:30:08.604Z,8.90
2023-05-23T08:45:12.157Z,9.30
2023-05-23T09:00:16.589Z,8.17
2023-05-23T09:15:19.817Z,8.40
2023-05-23T09:30:22.564Z,8.27
2023-05-23T09:45:31.303Z,7.40
2023-05-23T10:00:36.298Z,7.30
2023-05-23T10:15:40.924Z,6.97
2023-05-23T10:30:46.030Z,6.63
2023-05-23T10:45:50.670Z,6.10
2023-05-23T11:01:00.352Z,6.70
2023-05-23T11:16:31.025Z,5.63
2023-05-23T11:31:40.773Z,6.17
2023-05-23T11:47:02.529Z,5.77
2023-05-23T12:02:06.961Z,5.00
2023-05-23T12:17:11.374Z,4.90
2023-05-23T12:32:14.082Z,3.67
2023-05-23T12:47:16.653Z,3.77
2023-05-23T13:02:19.704Z,3.37
2023-05-23T13:17:22.617Z,3.97
2023-05-23T13:32:26.505Z,3.70
2023-05-23T13:47:29.544Z,4.00
2023-05-23T14:02:32.164Z,3.87
2023-05-23T14:17:34.721Z,3.80
2023-05-23T14:32:41.281Z,3.63
2023-05-23T14:47:44.054Z,3.50
2023-05-23T15:02:46.710Z,3.57
2023-05-23T15:17:51.016Z,3.67
2023-05-23T15:32:57.349Z,3.93
2023-05-23T15:48:01.165Z,3.10
2023-05-23T16:03:03.856Z,3.50
2023-05-23T16:18:06.308Z,3.70
2023-05-23T16:33:08.964Z,3.00
2023-05-23T16:48:11.678Z,3.07
2023-05-23T17:03:14.188Z,3.17
2023-05-23T17:18:17.402Z,2.90
2023-05-23T17:33:20.383Z,2.63
2023-05-23T17:48:34.398Z,2.83
2023-05-23T18:03:45.946Z,3.30
2023-05-23T18:18:48.703Z,2.77
2023-05-23T18:51:49.398Z,2.60
2023-05-23T19:59:21.537Z,2.90
2023-05-23T20:14:23.977Z,3.97
2023-05-23T20:29:56.578Z,3.40
2023-05-23T20:45:17.070Z,2.83
